createdAt,value
2019-06-10T00:00:42.033Z,17.80
2019-06-10T00:03:11.834Z,17.60
2019-06-10T00:05:41.391Z,18.00
2019-06-10T00:08:11.806Z,18.10
2019-06-10T00:10:42.057Z,17.90
2019-06-10T00:13:11.901Z,17.90
2019-06-10T00:15:41.377Z,18.00
2019-06-10T00:18:34.106Z,18.30
2019-06-10T00:20:41.298Z,18.10
2019-06-10T00:23:12.241Z,18.10
2019-06-10T00:25:41.341Z,18.20
2019-06-10T00:28:11.984Z,18.10
2019-06-10T00:30:41.508Z,18.00
2019-06-10T00:33:12.619Z,17.90
2019-06-10T00:35:41.446Z,17.50
2019-06-10T00:38:13.948Z,17.40
2019-06-10T00:40:41.519Z,17.20
2019-06-10T00:43:13.308Z,17.10
2019-06-10T00:45:41.317Z,17.30
2019-06-10T00:48:24.360Z,17.80
2019-06-10T00:50:41.729Z,17.90
2019-06-10T00:53:14.258Z,18.10
2019-06-10T00:55:41.664Z,18.30
2019-06-10T00:58:13.397Z,18.40
2019-06-10T01:00:41.741Z,18.40
2019-06-10T01:03:13.584Z,18.50
2019-06-10T01:05:42.263Z,18.40
2019-06-10T01:08:15.096Z,18.20
2019-06-10T01:10:43.648Z,17.60
2019-06-10T01:13:14.041Z,17.00
2019-06-10T01:15:42.704Z,17.30
2019-06-10T01:18:28.691Z,17.60
2019-06-10T01:20:41.803Z,17.20
2019-06-10T01:23:13.511Z,16.70
2019-06-10T01:25:42.353Z,17.00
2019-06-10T01:28:14.738Z,17.40
2019-06-10T01:30:41.555Z,17.80
2019-06-10T01:33:12.381Z,17.80
2019-06-10T01:35:41.565Z,17.50
2019-06-10T01:38:12.823Z,17.90
2019-06-10T01:40:42.206Z,17.80
2019-06-10T01:43:13.961Z,17.80
2019-06-10T01:45:42.172Z,18.00
2019-06-10T01:48:12.146Z,18.10
2019-06-10T01:50:41.377Z,18.30
2019-06-10T01:53:12.663Z,18.40
2019-06-10T01:55:41.736Z,18.40
2019-06-10T01:58:14.192Z,18.50
2019-06-10T02:00:42.642Z,18.40
2019-06-10T02:03:13.525Z,18.40
2019-06-10T02:05:42.050Z,18.00
2019-06-10T02:08:11.732Z,17.60
2019-06-10T02:10:41.573Z,17.10
2019-06-10T02:13:13.637Z,17.10
2019-06-10T02:15:42.197Z,17.60
2019-06-10T02:18:13.270Z,17.90
2019-06-10T02:20:41.332Z,18.20
2019-06-10T02:23:12.290Z,18.30
2019-06-10T02:25:41.201Z,17.80
2019-06-10T02:28:13.132Z,17.60
2019-06-10T02:30:50.332Z,17.20
2019-06-10T02:33:12.685Z,16.70
2019-06-10T02:35:48.503Z,16.90
2019-06-10T02:38:16.780Z,17.30
2019-06-10T02:40:43.319Z,17.30
2019-06-10T02:43:17.841Z,17.70
2019-06-10T02:45:44.492Z,17.80
2019-06-10T02:48:16.188Z,17.70
2019-06-10T02:50:53.985Z,17.30
2019-06-10T02:53:30.551Z,17.50
2019-06-10T02:55:54.059Z,17.60
2019-06-10T02:58:30.413Z,17.30
2019-06-10T03:00:54.645Z,16.80
2019-06-10T03:03:35.752Z,14.80
2019-06-10T03:05:54.137Z,15.30
2019-06-10T03:08:28.721Z,15.20
2019-06-10T03:10:54.651Z,15.20
2019-06-10T03:13:25.585Z,15.70
2019-06-10T03:15:55.778Z,15.40
2019-06-10T03:18:25.696Z,15.10
2019-06-10T03:20:54.662Z,15.20
2019-06-10T03:23:25.131Z,15.90
2019-06-10T03:26:03.714Z,16.20
2019-06-10T03:28:32.119Z,16.60
2019-06-10T03:31:04.904Z,16.80
2019-06-10T03:33:39.906Z,16.80
2019-06-10T03:36:03.210Z,16.90
2019-06-10T03:38:32.522Z,16.90
2019-06-10T03:41:03.343Z,17.30
2019-06-10T03:43:32.875Z,17.30
2019-06-10T03:46:03.015Z,17.30
2019-06-10T03:48:32.822Z,17.30
2019-06-10T03:51:03.371Z,17.60
2019-06-10T03:53:33.623Z,17.30
2019-06-10T03:56:02.768Z,17.30
2019-06-10T03:58:32.825Z,17.30
2019-06-10T04:01:03.131Z,17.20
2019-06-10T04:03:33.928Z,17.20
2019-06-10T04:06:02.541Z,17.10
2019-06-10T04:08:32.860Z,17.30
2019-06-10T04:11:03.035Z,17.40
2019-06-10T04:13:33.777Z,17.30
2019-06-10T04:16:02.699Z,17.40
2019-06-10T04:18:32.798Z,17.40
2019-06-10T04:21:02.461Z,17.50
2019-06-10T04:23:33.494Z,17.60
2019-06-10T04:26:02.375Z,17.50
2019-06-10T04:28:33.449Z,17.90
2019-06-10T04:31:02.612Z,18.00
2019-06-10T04:33:32.882Z,18.10
2019-06-10T04:36:02.998Z,18.00
2019-06-10T04:38:32.815Z,17.90
2019-06-10T04:41:03.380Z,17.60
2019-06-10T04:43:32.546Z,17.70
2019-06-10T04:46:02.335Z,17.70
2019-06-10T04:48:32.727Z,17.40
2019-06-10T04:51:02.727Z,17.20
2019-06-10T04:53:32.972Z,17.30
2019-06-10T04:56:02.981Z,17.40
2019-06-10T04:58:33.460Z,17.30
2019-06-10T05:01:03.189Z,17.60
2019-06-10T05:03:52.602Z,17.90
2019-06-10T05:06:23.856Z,18.10
2019-06-10T05:08:53.623Z,18.20
2019-06-10T05:11:24.202Z,18.20
2019-06-10T05:13:53.334Z,18.20
2019-06-10T05:16:25.515Z,18.30
2019-06-10T05:18:54.837Z,18.30
2019-06-10T05:21:25.984Z,18.30
2019-06-10T05:23:53.071Z,18.50
2019-06-10T05:26:25.045Z,18.50
2019-06-10T05:28:52.486Z,18.60
2019-06-10T05:31:23.093Z,18.70
2019-06-10T05:33:53.029Z,18.70
2019-06-10T05:36:25.447Z,18.70
2019-06-10T05:38:52.562Z,18.70
2019-06-10T05:41:24.143Z,18.70
2019-06-10T05:43:52.333Z,18.50
2019-06-10T05:46:23.635Z,18.60
2019-06-10T05:48:52.606Z,18.70
2019-06-10T05:51:24.089Z,18.60
2019-06-10T05:53:52.794Z,18.70
2019-06-10T05:56:23.684Z,18.30
2019-06-10T05:58:52.500Z,18.30
2019-06-10T06:01:22.855Z,18.20
2019-06-10T06:03:52.915Z,18.40
2019-06-10T06:06:22.953Z,18.60
2019-06-10T06:08:53.327Z,18.60
2019-06-10T06:11:23.145Z,18.40
2019-06-10T06:13:52.332Z,18.50
2019-06-10T06:16:23.047Z,18.60
2019-06-10T06:18:52.688Z,18.70
2019-06-10T06:21:29.125Z,18.60
2019-06-10T06:23:52.805Z,18.30
2019-06-10T06:26:23.579Z,17.70
2019-06-10T06:28:53.513Z,18.00
2019-06-10T06:31:23.274Z,17.70
2019-06-10T06:33:52.695Z,17.80
2019-06-10T06:36:22.648Z,17.80
2019-06-10T06:38:53.145Z,18.00
2019-06-10T06:41:22.589Z,17.90
2019-06-10T06:43:53.144Z,17.90
2019-06-10T06:46:23.316Z,17.90
2019-06-10T06:48:53.213Z,18.30
2019-06-10T06:51:35.934Z,18.30
2019-06-10T06:53:56.100Z,17.80
2019-06-10T06:56:23.169Z,17.90
2019-06-10T06:58:52.580Z,18.10
2019-06-10T07:01:25.533Z,18.10
2019-06-10T07:03:53.588Z,18.10
2019-06-10T07:06:23.794Z,17.90
2019-06-10T07:09:03.989Z,18.00
2019-06-10T07:11:24.156Z,17.60
2019-06-10T07:13:55.011Z,17.60
2019-06-10T07:16:23.772Z,17.90
2019-06-10T07:18:53.895Z,17.90
2019-06-10T07:21:22.983Z,17.60
2019-06-10T07:23:52.795Z,17.30
2019-06-10T07:26:22.187Z,17.20
2019-06-10T07:28:53.378Z,17.50
2019-06-10T07:31:26.997Z,17.80
2019-06-10T07:33:52.583Z,17.60
2019-06-10T07:36:23.581Z,17.70
2019-06-10T07:38:53.925Z,17.60
2019-06-10T07:41:23.191Z,17.20
2019-06-10T07:43:53.073Z,17.70
2019-06-10T07:46:23.041Z,18.00
2019-06-10T07:48:56.241Z,17.80
2019-06-10T07:51:22.729Z,17.70
2019-06-10T07:53:52.519Z,17.60
2019-06-10T07:56:23.309Z,17.90
2019-06-10T07:58:52.849Z,17.80
2019-06-10T08:01:23.012Z,17.70
2019-06-10T08:03:52.889Z,18.10
2019-06-10T08:06:22.868Z,17.60
2019-06-10T08:08:53.166Z,17.50
2019-06-10T08:11:22.907Z,17.60
2019-06-10T08:13:53.787Z,17.40
2019-06-10T08:16:23.554Z,17.50
2019-06-10T08:19:20.904Z,17.90
2019-06-10T08:21:23.031Z,18.20
2019-06-10T08:23:54.286Z,18.60
2019-06-10T08:26:23.334Z,18.30
2019-06-10T08:28:52.999Z,18.00
2019-06-10T08:31:22.558Z,18.00
2019-06-10T08:33:53.365Z,17.60
2019-06-10T08:36:22.564Z,17.60
2019-06-10T08:38:52.622Z,18.20
2019-06-10T08:41:23.093Z,18.40
2019-06-10T08:43:52.920Z,18.00
2019-06-10T08:46:22.512Z,17.90
2019-06-10T08:48:52.520Z,18.00
2019-06-10T08:51:23.608Z,17.40
2019-06-10T08:53:53.230Z,17.60
2019-06-10T08:56:22.516Z,17.30
2019-06-10T08:58:53.803Z,17.10
2019-06-10T09:01:22.289Z,17.20
2019-06-10T09:03:53.472Z,17.00
2019-06-10T09:06:23.043Z,17.10
2019-06-10T09:08:54.479Z,16.90
2019-06-10T09:11:23.726Z,16.70
2019-06-10T09:13:53.274Z,16.40
2019-06-10T09:16:22.857Z,16.70
2019-06-10T09:18:54.970Z,16.90
2019-06-10T09:21:22.400Z,16.90
2019-06-10T09:23:58.567Z,17.30
2019-06-10T09:26:22.994Z,17.30
2019-06-10T09:28:55.770Z,17.70
2019-06-10T09:31:23.817Z,17.80
2019-06-10T09:33:56.576Z,18.30
2019-06-10T09:36:23.661Z,17.60
2019-06-10T09:38:55.053Z,18.00
2019-06-10T09:41:36.094Z,18.00
2019-06-10T09:43:56.930Z,17.80
2019-06-10T09:46:25.689Z,17.90
2019-06-10T09:48:56.197Z,18.00
2019-06-10T09:51:25.532Z,17.20
2019-06-10T09:54:02.153Z,17.30
2019-06-10T09:56:24.947Z,17.50
2019-06-10T09:58:55.395Z,17.90
2019-06-10T10:01:24.742Z,18.20
2019-06-10T10:03:59.327Z,17.80
2019-06-10T10:06:24.697Z,18.30
2019-06-10T10:08:58.147Z,18.10
2019-06-10T10:11:28.404Z,18.50
2019-06-10T10:13:54.796Z,18.60
2019-06-10T10:16:23.361Z,18.50
2019-06-10T10:18:57.065Z,18.50
2019-06-10T10:21:22.426Z,18.10
2019-06-10T10:24:06.560Z,17.60
2019-06-10T10:26:21.503Z,17.90
2019-06-10T10:28:52.112Z,18.20
2019-06-10T10:31:23.064Z,18.30
2019-06-10T10:33:50.723Z,18.20
2019-06-10T10:36:38.542Z,18.50
2019-06-10T10:39:09.622Z,18.50
2019-06-10T10:41:38.341Z,18.20
2019-06-10T10:44:07.148Z,17.80
2019-06-10T10:46:35.652Z,17.80
2019-06-10T10:49:04.556Z,17.30
2019-06-10T10:51:33.147Z,17.40
2019-06-10T10:54:21.248Z,17.50
2019-06-10T10:56:33.922Z,17.80
2019-06-10T10:59:02.550Z,17.40
2019-06-10T11:01:33.147Z,17.10
2019-06-10T11:04:03.680Z,17.30
2019-06-10T11:06:32.318Z,17.10
2019-06-10T11:09:01.096Z,16.50
2019-06-10T11:11:30.379Z,16.80
2019-06-10T11:13:59.878Z,16.70
2019-06-10T11:16:28.507Z,17.00
2019-06-10T11:18:58.112Z,17.10
2019-06-10T11:21:26.727Z,17.40
2019-06-10T11:23:59.912Z,17.20
2019-06-10T11:26:26.954Z,17.20
2019-06-10T11:28:55.849Z,16.70
2019-06-10T11:31:24.568Z,16.20
2019-06-10T11:33:56.121Z,16.40
2019-06-10T11:36:23.641Z,16.50
2019-06-10T11:38:55.144Z,16.30
2019-06-10T11:41:23.649Z,16.50
2019-06-10T11:43:56.024Z,16.80
2019-06-10T11:46:22.814Z,17.10
2019-06-10T11:48:53.998Z,17.10
2019-06-10T11:51:23.472Z,16.80
2019-06-10T11:53:54.526Z,16.20
2019-06-10T11:56:22.366Z,16.10
2019-06-10T11:58:55.175Z,16.30
2019-06-10T12:01:22.934Z,16.50
2019-06-10T12:03:54.124Z,16.60
2019-06-10T12:06:22.831Z,16.50
2019-06-10T12:08:57.352Z,16.60
2019-06-10T12:11:22.991Z,16.80
2019-06-10T12:13:53.829Z,17.10
2019-06-10T12:18:54.194Z,16.80
2019-06-10T12:21:23.688Z,16.90
2019-06-10T12:23:55.928Z,16.50
2019-06-10T12:26:23.509Z,15.50
2019-06-10T12:28:54.663Z,14.90
2019-06-10T12:31:23.340Z,14.30
2019-06-10T12:33:55.280Z,14.50
2019-06-10T12:36:23.734Z,14.30
2019-06-10T12:38:57.517Z,14.90
2019-06-10T12:41:23.311Z,14.80
2019-06-10T12:43:53.076Z,14.80
2019-06-10T12:46:23.157Z,14.60
2019-06-10T12:48:54.001Z,14.60
2019-06-10T12:51:22.853Z,14.80
2019-06-10T12:53:53.149Z,14.90
2019-06-10T12:56:22.799Z,15.40
2019-06-10T12:58:54.053Z,15.30
2019-06-10T13:01:22.662Z,15.40
2019-06-10T13:03:53.623Z,15.00
2019-06-10T13:06:23.563Z,14.60
2019-06-10T13:08:56.329Z,14.90
2019-06-10T13:11:25.753Z,14.40
2019-06-10T13:13:56.123Z,14.50
2019-06-10T13:16:24.767Z,14.30
2019-06-10T13:18:53.876Z,14.80
2019-06-10T13:21:22.900Z,14.60
2019-06-10T13:23:54.144Z,14.60
2019-06-10T13:26:23.143Z,14.80
2019-06-10T13:28:52.590Z,15.00
2019-06-10T13:31:23.605Z,14.50
2019-06-10T13:33:52.951Z,15.10
2019-06-10T13:36:25.893Z,14.90
2019-06-10T13:38:53.252Z,14.60
2019-06-10T13:41:22.767Z,14.90
2019-06-10T13:43:52.851Z,14.90
2019-06-10T13:46:24.306Z,15.20
2019-06-10T13:48:52.359Z,14.90
2019-06-10T13:51:20.977Z,14.90
2019-06-10T13:53:49.566Z,14.60
2019-06-10T13:56:39.786Z,14.40
2019-06-10T13:58:48.529Z,14.10
2019-06-10T14:01:21.534Z,14.10
2019-06-10T14:03:47.423Z,14.50
2019-06-10T14:06:33.187Z,14.50
2019-06-10T14:08:46.552Z,14.90
2019-06-10T14:11:15.214Z,14.90
2019-06-10T14:13:46.555Z,14.80
2019-06-10T14:16:15.399Z,14.40
2019-06-10T14:18:44.012Z,14.20
2019-06-10T14:21:17.936Z,14.50
2019-06-10T14:23:42.810Z,14.70
2019-06-10T14:26:16.662Z,14.20
2019-06-10T14:28:44.262Z,14.10
2019-06-10T14:31:35.589Z,14.10
2019-06-10T14:33:42.936Z,14.00
2019-06-10T14:36:15.136Z,13.60
2019-06-10T14:38:43.278Z,13.70
2019-06-10T14:41:12.289Z,13.70
2019-06-10T14:43:42.433Z,13.50
2019-06-10T14:46:14.394Z,13.90
2019-06-10T14:48:42.650Z,13.70
2019-06-10T14:51:14.011Z,13.70
2019-06-10T14:53:42.744Z,13.40
2019-06-10T14:56:15.951Z,13.60
2019-06-10T14:58:42.434Z,13.50
2019-06-10T15:01:13.412Z,13.80
2019-06-10T15:03:42.944Z,13.90
2019-06-10T15:06:16.984Z,13.80
2019-06-10T15:08:45.767Z,13.70
2019-06-10T15:11:15.778Z,13.80
2019-06-10T15:13:44.402Z,13.50
2019-06-10T15:16:14.202Z,13.10
2019-06-10T15:18:43.296Z,13.00
2019-06-10T15:21:13.170Z,13.00
2019-06-10T15:23:42.859Z,12.80
2019-06-10T15:26:14.462Z,13.00
2019-06-10T15:28:42.734Z,13.00
2019-06-10T15:31:13.447Z,12.80
2019-06-10T15:33:42.991Z,13.00
2019-06-10T15:36:13.111Z,12.60
2019-06-10T15:38:43.902Z,12.20
2019-06-10T15:41:16.084Z,12.20
2019-06-10T15:43:42.493Z,12.30
2019-06-10T15:46:12.931Z,12.30
2019-06-10T15:48:43.039Z,12.70
2019-06-10T15:51:15.402Z,12.80
2019-06-10T15:53:43.083Z,12.80
2019-06-10T15:56:23.896Z,12.40
2019-06-10T15:58:42.990Z,12.40
2019-06-10T16:01:14.450Z,12.50
2019-06-10T16:03:42.567Z,12.40
2019-06-10T16:06:12.140Z,12.20
2019-06-10T16:08:43.008Z,12.00
2019-06-10T16:11:14.824Z,12.30
2019-06-10T16:13:43.058Z,12.30
2019-06-10T16:16:12.792Z,12.10
2019-06-10T16:18:42.297Z,12.20
2019-06-10T16:21:13.346Z,12.30
2019-06-10T16:23:43.022Z,12.20
2019-06-10T16:26:13.047Z,12.40
2019-06-10T16:28:42.700Z,12.30
2019-06-10T16:31:13.072Z,12.40
2019-06-10T16:33:49.195Z,12.30
2019-06-10T16:36:12.307Z,12.30
2019-06-10T16:38:42.333Z,12.40
2019-06-10T16:41:12.333Z,12.20
2019-06-10T16:43:42.899Z,12.30
2019-06-10T16:46:11.576Z,12.60
2019-06-10T16:48:40.183Z,12.50
2019-06-10T16:51:09.276Z,12.50
2019-06-10T16:53:38.339Z,12.70
2019-06-10T16:56:06.947Z,12.70
2019-06-10T16:58:35.638Z,12.60
2019-06-10T17:01:04.759Z,12.40
2019-06-10T17:03:33.929Z,12.80
2019-06-10T17:06:03.377Z,13.10
2019-06-10T17:08:33.479Z,13.30
2019-06-10T17:11:03.293Z,12.70
2019-06-10T17:13:32.209Z,12.80
2019-06-10T17:16:03.452Z,12.70
2019-06-10T17:18:33.713Z,12.90
2019-06-10T17:21:03.116Z,12.50
2019-06-10T17:23:36.303Z,12.70
2019-06-10T17:26:02.615Z,12.90
2019-06-10T17:28:36.462Z,12.90
2019-06-10T17:31:03.850Z,13.10
2019-06-10T17:33:35.468Z,13.00
2019-06-10T17:36:03.467Z,13.10
2019-06-10T17:38:32.364Z,13.00
2019-06-10T17:41:02.955Z,12.80
2019-06-10T17:43:34.045Z,13.00
2019-06-10T17:46:03.395Z,13.00
2019-06-10T17:48:33.722Z,13.10
2019-06-10T17:51:02.770Z,13.10
2019-06-10T17:53:34.680Z,13.10
2019-06-10T17:56:03.340Z,13.30
2019-06-10T17:58:47.514Z,13.30
2019-06-10T18:01:02.429Z,13.30
2019-06-10T18:03:31.422Z,13.10
2019-06-10T18:06:02.620Z,12.90
2019-06-10T18:08:32.364Z,13.30
2019-06-10T18:11:03.043Z,13.30
2019-06-10T18:13:33.077Z,13.70
2019-06-10T18:16:02.801Z,13.70
2019-06-10T18:18:36.660Z,13.50
2019-06-10T18:21:03.396Z,13.30
2019-06-10T18:23:33.114Z,13.40
2019-06-10T18:26:03.248Z,13.10
2019-06-10T18:28:45.539Z,13.50
2019-06-10T18:31:02.990Z,13.40
2019-06-10T18:33:34.619Z,13.30
2019-06-10T18:36:01.999Z,13.30
2019-06-10T18:38:33.748Z,13.20
2019-06-10T18:41:03.177Z,13.30
2019-06-10T18:43:35.097Z,13.20
2019-06-10T18:46:03.603Z,13.30
2019-06-10T18:48:35.997Z,13.40
2019-06-10T18:51:02.779Z,13.30
2019-06-10T18:53:33.550Z,13.10
2019-06-10T18:56:01.817Z,13.10
2019-06-10T18:58:33.011Z,13.20
2019-06-10T19:01:07.177Z,13.30
2019-06-10T19:03:33.413Z,13.00
2019-06-10T19:06:01.450Z,13.20
2019-06-10T19:08:33.976Z,13.10
2019-06-10T19:11:02.392Z,13.10
2019-06-10T19:13:33.681Z,13.00
2019-06-10T19:16:02.389Z,13.20
2019-06-10T19:18:31.914Z,13.70
2019-06-10T19:21:03.585Z,13.50
2019-06-10T19:23:33.523Z,13.10
2019-06-10T19:26:02.981Z,13.20
2019-06-10T19:28:33.894Z,13.40
2019-06-10T19:31:02.560Z,13.20
2019-06-10T19:33:33.917Z,13.20
2019-06-10T19:36:02.330Z,13.00
2019-06-10T19:38:32.405Z,12.80
2019-06-10T19:41:02.684Z,12.80
2019-06-10T19:43:34.479Z,13.00
2019-06-10T19:46:05.825Z,12.90
2019-06-10T19:48:36.278Z,13.10
2019-06-10T19:51:03.603Z,13.00
2019-06-10T19:53:33.107Z,13.00
2019-06-10T19:56:02.962Z,13.10
2019-06-10T19:58:32.378Z,12.90
2019-06-10T20:01:01.331Z,12.70
2019-06-10T20:03:32.540Z,12.80
2019-06-10T20:06:02.903Z,12.80
2019-06-10T20:08:33.039Z,12.80
2019-06-10T20:11:03.453Z,12.90
2019-06-10T20:13:32.586Z,13.20
2019-06-10T20:16:03.036Z,12.80
2019-06-10T20:18:33.204Z,13.00
2019-06-10T20:21:02.654Z,12.90
2019-06-10T20:23:33.314Z,12.80
2019-06-10T20:26:02.378Z,12.90
2019-06-10T20:28:32.148Z,13.00
2019-06-10T20:31:01.014Z,12.80
2019-06-10T20:33:36.180Z,12.60
2019-06-10T20:36:03.364Z,12.70
2019-06-10T20:38:32.999Z,12.70
2019-06-10T20:41:02.660Z,12.60
2019-06-10T20:43:32.907Z,12.70
2019-06-10T20:46:02.848Z,12.80
2019-06-10T20:48:33.291Z,12.70
2019-06-10T20:51:02.893Z,12.60
2019-06-10T20:53:33.806Z,12.70
2019-06-10T20:56:03.892Z,12.90
2019-06-10T20:58:33.208Z,12.60
2019-06-10T21:01:04.589Z,12.70
2019-06-10T21:03:32.518Z,12.80
2019-06-10T21:06:03.125Z,12.40
2019-06-10T21:08:34.231Z,12.40
2019-06-10T21:11:03.248Z,12.40
2019-06-10T21:13:32.989Z,12.30
2019-06-10T21:16:03.534Z,12.50
2019-06-10T21:18:32.976Z,12.40
2019-06-10T21:21:02.043Z,12.50
2019-06-10T21:23:30.806Z,12.40
2019-06-10T21:25:59.460Z,12.40
2019-06-10T21:28:27.972Z,12.60
2019-06-10T21:30:58.864Z,12.80
2019-06-10T21:33:26.971Z,12.80
2019-06-10T21:35:55.691Z,12.80
2019-06-10T21:38:24.395Z,13.00
2019-06-10T21:40:54.196Z,12.70
2019-06-10T21:43:23.075Z,12.80
2019-06-10T21:45:57.419Z,12.90
2019-06-10T21:48:22.970Z,12.80
2019-06-10T21:50:55.621Z,13.00
2019-06-10T21:53:22.439Z,12.80
2019-06-10T21:55:53.505Z,12.90
2019-06-10T21:58:22.510Z,12.80
2019-06-10T22:01:08.538Z,12.80
2019-06-10T22:03:25.209Z,12.70
2019-06-10T22:05:53.903Z,12.50
2019-06-10T22:08:25.491Z,12.40
2019-06-10T22:10:56.156Z,12.40
2019-06-10T22:13:24.864Z,12.60
2019-06-10T22:15:55.283Z,12.50
2019-06-10T22:18:23.745Z,12.50
2019-06-10T22:20:56.051Z,12.50
2019-06-10T22:23:23.359Z,12.20
2019-06-10T22:25:55.637Z,12.60
2019-06-10T22:28:22.719Z,12.60
2019-06-10T22:30:55.665Z,12.70
2019-06-10T22:33:22.615Z,12.70
2019-06-10T22:35:54.357Z,12.30
2019-06-10T22:38:22.192Z,12.30
2019-06-10T22:40:53.647Z,12.60
2019-06-10T22:43:23.591Z,12.50
2019-06-10T22:45:53.837Z,12.30
2019-06-10T22:48:23.690Z,12.40
2019-06-10T22:50:53.308Z,12.20
2019-06-10T22:53:23.231Z,12.30
2019-06-10T22:55:53.470Z,12.50
2019-06-10T22:58:23.658Z,12.60
2019-06-10T23:00:53.197Z,12.50
2019-06-10T23:03:22.818Z,12.70
2019-06-10T23:05:52.365Z,12.90
2019-06-10T23:08:23.062Z,12.60
2019-06-10T23:10:53.736Z,12.80
2019-06-10T23:13:23.151Z,12.40
2019-06-10T23:15:53.945Z,12.70
2019-06-10T23:18:22.559Z,12.70
2019-06-10T23:20:53.913Z,12.80
2019-06-10T23:23:23.380Z,13.10
2019-06-10T23:25:51.770Z,12.90
2019-06-10T23:28:22.216Z,12.70
2019-06-10T23:30:53.512Z,12.70
2019-06-10T23:33:22.886Z,12.70
2019-06-10T23:35:52.526Z,12.70
2019-06-10T23:38:23.632Z,12.60
2019-06-10T23:40:53.172Z,12.40
2019-06-10T23:43:22.549Z,12.40
2019-06-10T23:45:51.218Z,12.60
2019-06-10T23:48:22.555Z,12.50
2019-06-10T23:50:52.699Z,12.60
2019-06-10T23:53:23.000Z,12.70
2019-06-10T23:55:51.786Z,12.70
2019-06-10T23:58:22.743Z,12.70
